sensor_id;sensor_type;location;lat;lon;timestamp;P1;durP1;ratioP1;P2;durP2;ratioP2
59310;SDS011;45078;51.654;21.250;2024-01-30T00:01:10;29.90;;;12.27;;
59310;SDS011;45078;51.654;21.250;2024-01-30T00:03:36;35.78;;;12.35;;
59310;SDS011;45078;51.654;21.250;2024-01-30T00:06:03;29.02;;;11.95;;
59310;SDS011;45078;51.654;21.250;2024-01-30T00:08:28;29.27;;;12.02;;
59310;SDS011;45078;51.654;21.250;2024-01-30T00:10:54;31.50;;;11.88;;
59310;SDS011;45078;51.654;21.250;2024-01-30T00:13:20;31.17;;;12.82;;
59310;SDS011;45078;51.654;21.250;2024-01-30T00:15:45;27.60;;;11.75;;
59310;SDS011;45078;51.654;21.250;2024-01-30T00:18:11;31.67;;;11.85;;
59310;SDS011;45078;51.654;21.250;2024-01-30T00:20:37;25.23;;;10.95;;
59310;SDS011;45078;51.654;21.250;2024-01-30T00:23:03;25.88;;;12.02;;
59310;SDS011;45078;51.654;21.250;2024-01-30T00:25:28;21.60;;;11.30;;
59310;SDS011;45078;51.654;21.250;2024-01-30T00:27:54;26.10;;;10.73;;
59310;SDS011;45078;51.654;21.250;2024-01-30T00:30:20;27.70;;;10.75;;
59310;SDS011;45078;51.654;21.250;2024-01-30T00:32:45;29.02;;;11.82;;
59310;SDS011;45078;51.654;21.250;2024-01-30T00:35:11;30.02;;;11.25;;
59310;SDS011;45078;51.654;21.250;2024-01-30T00:37:37;24.33;;;10.80;;
59310;SDS011;45078;51.654;21.250;2024-01-30T00:40:02;27.23;;;12.13;;
59310;SDS011;45078;51.654;21.250;2024-01-30T00:42:28;28.50;;;12.38;;
59310;SDS011;45078;51.654;21.250;2024-01-30T00:44:54;26.92;;;11.05;;
59310;SDS011;45078;51.654;21.250;2024-01-30T00:47:20;26.05;;;11.30;;
59310;SDS011;45078;51.654;21.250;2024-01-30T00:49:45;23.85;;;10.98;;
59310;SDS011;45078;51.654;21.250;2024-01-30T00:52:11;18.67;;;9.48;;
59310;SDS011;45078;51.654;21.250;2024-01-30T00:54:37;26.80;;;10.52;;
59310;SDS011;45078;51.654;21.250;2024-01-30T00:57:02;27.15;;;10.88;;
59310;SDS011;45078;51.654;21.250;2024-01-30T00:59:28;24.77;;;9.82;;
59310;SDS011;45078;51.654;21.250;2024-01-30T01:01:54;13.05;;;5.40;;
59310;SDS011;45078;51.654;21.250;2024-01-30T01:04:19;30.65;;;12.20;;
59310;SDS011;45078;51.654;21.250;2024-01-30T01:06:46;28.33;;;11.52;;
59310;SDS011;45078;51.654;21.250;2024-01-30T01:09:12;26.65;;;11.77;;
59310;SDS011;45078;51.654;21.250;2024-01-30T01:11:38;23.42;;;10.70;;
59310;SDS011;45078;51.654;21.250;2024-01-30T01:14:03;26.73;;;11.98;;
59310;SDS011;45078;51.654;21.250;2024-01-30T01:16:29;21.70;;;11.60;;
59310;SDS011;45078;51.654;21.250;2024-01-30T01:18:55;19.80;;;9.35;;
59310;SDS011;45078;51.654;21.250;2024-01-30T01:21:21;24.92;;;12.27;;
59310;SDS011;45078;51.654;21.250;2024-01-30T01:23:47;23.52;;;10.77;;
59310;SDS011;45078;51.654;21.250;2024-01-30T01:26:12;28.88;;;11.38;;
59310;SDS011;45078;51.654;21.250;2024-01-30T01:28:40;27.33;;;10.70;;
59310;SDS011;45078;51.654;21.250;2024-01-30T01:31:06;24.25;;;9.52;;
59310;SDS011;45078;51.654;21.250;2024-01-30T01:33:32;27.80;;;10.95;;
59310;SDS011;45078;51.654;21.250;2024-01-30T01:35:58;22.90;;;10.85;;
59310;SDS011;45078;51.654;21.250;2024-01-30T01:38:24;31.92;;;12.23;;
59310;SDS011;45078;51.654;21.250;2024-01-30T01:40:50;28.20;;;12.07;;
59310;SDS011;45078;51.654;21.250;2024-01-30T01:43:16;27.10;;;10.50;;
59310;SDS011;45078;51.654;21.250;2024-01-30T01:45:41;26.95;;;12.05;;
59310;SDS011;45078;51.654;21.250;2024-01-30T01:48:07;21.55;;;11.57;;
59310;SDS011;45078;51.654;21.250;2024-01-30T01:50:34;26.92;;;12.13;;
59310;SDS011;45078;51.654;21.250;2024-01-30T01:53:00;30.63;;;10.98;;
59310;SDS011;45078;51.654;21.250;2024-01-30T01:55:27;18.13;;;9.35;;
59310;SDS011;45078;51.654;21.250;2024-01-30T01:57:55;27.90;;;12.10;;
59310;SDS011;45078;51.654;21.250;2024-01-30T02:00:21;19.48;;;9.25;;
59310;SDS011;45078;51.654;21.250;2024-01-30T02:02:48;19.13;;;10.13;;
59310;SDS011;45078;51.654;21.250;2024-01-30T02:05:15;15.55;;;8.60;;
59310;SDS011;45078;51.654;21.250;2024-01-30T02:07:41;30.80;;;11.30;;
59310;SDS011;45078;51.654;21.250;2024-01-30T02:10:08;23.98;;;10.15;;
59310;SDS011;45078;51.654;21.250;2024-01-30T02:12:37;26.50;;;10.38;;
59310;SDS011;45078;51.654;21.250;2024-01-30T02:15:03;23.00;;;10.40;;
59310;SDS011;45078;51.654;21.250;2024-01-30T02:17:30;18.60;;;8.65;;
59310;SDS011;45078;51.654;21.250;2024-01-30T02:19:55;28.25;;;10.88;;
59310;SDS011;45078;51.654;21.250;2024-01-30T02:22:21;20.40;;;9.18;;
59310;SDS011;45078;51.654;21.250;2024-01-30T02:24:48;14.25;;;7.63;;
59310;SDS011;45078;51.654;21.250;2024-01-30T02:27:14;28.05;;;11.52;;
59310;SDS011;45078;51.654;21.250;2024-01-30T02:29:40;23.23;;;10.35;;
59310;SDS011;45078;51.654;21.250;2024-01-30T02:32:06;25.02;;;10.68;;
59310;SDS011;45078;51.654;21.250;2024-01-30T02:34:32;22.02;;;9.57;;
59310;SDS011;45078;51.654;21.250;2024-01-30T02:36:58;26.98;;;10.82;;
59310;SDS011;45078;51.654;21.250;2024-01-30T02:39:24;27.55;;;11.45;;
59310;SDS011;45078;51.654;21.250;2024-01-30T02:41:49;30.30;;;13.18;;
59310;SDS011;45078;51.654;21.250;2024-01-30T02:44:15;29.27;;;12.60;;
59310;SDS011;45078;51.654;21.250;2024-01-30T02:46:40;24.45;;;10.38;;
59310;SDS011;45078;51.654;21.250;2024-01-30T02:49:06;21.60;;;10.07;;
59310;SDS011;45078;51.654;21.250;2024-01-30T02:51:32;27.38;;;11.80;;
59310;SDS011;45078;51.654;21.250;2024-01-30T02:53:57;21.73;;;10.82;;
59310;SDS011;45078;51.654;21.250;2024-01-30T02:56:23;29.65;;;11.85;;
59310;SDS011;45078;51.654;21.250;2024-01-30T02:58:48;29.65;;;10.63;;
59310;SDS011;45078;51.654;21.250;2024-01-30T03:01:14;22.85;;;10.48;;
59310;SDS011;45078;51.654;21.250;2024-01-30T03:03:39;20.63;;;8.52;;
59310;SDS011;45078;51.654;21.250;2024-01-30T03:06:05;18.33;;;6.95;;
59310;SDS011;45078;51.654;21.250;2024-01-30T03:08:32;23.48;;;11.05;;
59310;SDS011;45078;51.654;21.250;2024-01-30T03:10:57;28.63;;;12.60;;
59310;SDS011;45078;51.654;21.250;2024-01-30T03:13:23;24.80;;;11.77;;
59310;SDS011;45078;51.654;21.250;2024-01-30T03:15:50;27.88;;;11.82;;
59310;SDS011;45078;51.654;21.250;2024-01-30T03:18:15;24.60;;;10.95;;
59310;SDS011;45078;51.654;21.250;2024-01-30T03:20:41;24.30;;;11.10;;
59310;SDS011;45078;51.654;21.250;2024-01-30T03:23:07;27.90;;;11.77;;
59310;SDS011;45078;51.654;21.250;2024-01-30T03:25:32;25.67;;;11.60;;
59310;SDS011;45078;51.654;21.250;2024-01-30T03:27:58;24.95;;;11.55;;
59310;SDS011;45078;51.654;21.250;2024-01-30T03:30:23;32.47;;;13.02;;
59310;SDS011;45078;51.654;21.250;2024-01-30T03:32:49;29.38;;;12.50;;
59310;SDS011;45078;51.654;21.250;2024-01-30T03:35:15;27.35;;;10.70;;
59310;SDS011;45078;51.654;21.250;2024-01-30T03:37:40;30.02;;;12.90;;
59310;SDS011;45078;51.654;21.250;2024-01-30T03:40:06;29.13;;;10.23;;
59310;SDS011;45078;51.654;21.250;2024-01-30T03:42:32;34.33;;;12.80;;
59310;SDS011;45078;51.654;21.250;2024-01-30T03:44:58;26.98;;;11.15;;
59310;SDS011;45078;51.654;21.250;2024-01-30T03:47:23;27.83;;;11.55;;
59310;SDS011;45078;51.654;21.250;2024-01-30T03:49:49;31.15;;;11.98;;
59310;SDS011;45078;51.654;21.250;2024-01-30T03:52:14;26.80;;;11.93;;
59310;SDS011;45078;51.654;21.250;2024-01-30T03:54:40;27.25;;;11.90;;
59310;SDS011;45078;51.654;21.250;2024-01-30T03:57:06;30.27;;;12.30;;
59310;SDS011;45078;51.654;21.250;2024-01-30T03:59:31;28.98;;;10.82;;
59310;SDS011;45078;51.654;21.250;2024-01-30T04:01:57;30.30;;;11.40;;
59310;SDS011;45078;51.654;21.250;2024-01-30T04:04:22;24.98;;;11.43;;
59310;SDS011;45078;51.654;21.250;2024-01-30T04:06:48;28.40;;;11.23;;
59310;SDS011;45078;51.654;21.250;2024-01-30T04:09:14;25.85;;;11.20;;
59310;SDS011;45078;51.654;21.250;2024-01-30T04:11:40;26.75;;;11.57;;
59310;SDS011;45078;51.654;21.250;2024-01-30T04:14:06;23.17;;;10.82;;
59310;SDS011;45078;51.654;21.250;2024-01-30T04:16:32;26.15;;;11.02;;
59310;SDS011;45078;51.654;21.250;2024-01-30T04:18:58;24.67;;;11.20;;
59310;SDS011;45078;51.654;21.250;2024-01-30T04:21:23;27.65;;;12.05;;
59310;SDS011;45078;51.654;21.250;2024-01-30T04:23:50;28.77;;;11.00;;
59310;SDS011;45078;51.654;21.250;2024-01-30T04:26:16;30.60;;;10.80;;
59310;SDS011;45078;51.654;21.250;2024-01-30T04:28:42;30.05;;;12.07;;
59310;SDS011;45078;51.654;21.250;2024-01-30T04:31:09;28.08;;;11.55;;
59310;SDS011;45078;51.654;21.250;2024-01-30T04:33:34;28.38;;;11.70;;
59310;SDS011;45078;51.654;21.250;2024-01-30T04:36:00;29.90;;;11.82;;
59310;SDS011;45078;51.654;21.250;2024-01-30T04:38:26;28.33;;;10.75;;
59310;SDS011;45078;51.654;21.250;2024-01-30T04:40:51;21.63;;;10.27;;
59310;SDS011;45078;51.654;21.250;2024-01-30T04:43:17;30.58;;;10.55;;
59310;SDS011;45078;51.654;21.250;2024-01-30T04:45:44;24.20;;;11.02;;
59310;SDS011;45078;51.654;21.250;2024-01-30T04:48:09;21.83;;;11.65;;
59310;SDS011;45078;51.654;21.250;2024-01-30T04:50:35;24.70;;;10.48;;
59310;SDS011;45078;51.654;21.250;2024-01-30T04:53:01;26.15;;;8.88;;
59310;SDS011;45078;51.654;21.250;2024-01-30T04:55:26;28.85;;;11.85;;
59310;SDS011;45078;51.654;21.250;2024-01-30T04:57:52;27.58;;;10.88;;
59310;SDS011;45078;51.654;21.250;2024-01-30T05:00:18;23.50;;;11.93;;
59310;SDS011;45078;51.654;21.250;2024-01-30T05:02:44;10.75;;;5.88;;
59310;SDS011;45078;51.654;21.250;2024-01-30T05:05:09;29.13;;;11.52;;
59310;SDS011;45078;51.654;21.250;2024-01-30T05:07:36;27.73;;;11.90;;
59310;SDS011;45078;51.654;21.250;2024-01-30T05:10:01;12.52;;;5.97;;
59310;SDS011;45078;51.654;21.250;2024-01-30T05:12:28;24.33;;;11.13;;
59310;SDS011;45078;51.654;21.250;2024-01-30T05:14:54;26.83;;;11.32;;
59310;SDS011;45078;51.654;21.250;2024-01-30T05:17:19;28.13;;;10.80;;
59310;SDS011;45078;51.654;21.250;2024-01-30T05:19:45;21.13;;;10.23;;
59310;SDS011;45078;51.654;21.250;2024-01-30T05:22:10;23.20;;;9.52;;
59310;SDS011;45078;51.654;21.250;2024-01-30T05:24:40;21.10;;;10.98;;
59310;SDS011;45078;51.654;21.250;2024-01-30T05:27:07;29.00;;;12.52;;
59310;SDS011;45078;51.654;21.250;2024-01-30T05:29:33;19.02;;;8.80;;
59310;SDS011;45078;51.654;21.250;2024-01-30T05:31:58;24.38;;;10.18;;
59310;SDS011;45078;51.654;21.250;2024-01-30T05:34:24;18.60;;;9.35;;
59310;SDS011;45078;51.654;21.250;2024-01-30T05:36:49;17.83;;;9.43;;
59310;SDS011;45078;51.654;21.250;2024-01-30T05:39:15;26.60;;;10.52;;
59310;SDS011;45078;51.654;21.250;2024-01-30T05:41:40;25.15;;;12.00;;
59310;SDS011;45078;51.654;21.250;2024-01-30T05:44:06;21.88;;;9.88;;
59310;SDS011;45078;51.654;21.250;2024-01-30T05:46:33;26.23;;;10.65;;
59310;SDS011;45078;51.654;21.250;2024-01-30T05:48:58;26.25;;;11.48;;
59310;SDS011;45078;51.654;21.250;2024-01-30T05:51:24;27.60;;;12.32;;
59310;SDS011;45078;51.654;21.250;2024-01-30T05:53:49;25.42;;;9.55;;
59310;SDS011;45078;51.654;21.250;2024-01-30T05:56:15;24.48;;;11.77;;
59310;SDS011;45078;51.654;21.250;2024-01-30T05:58:41;19.70;;;9.18;;
59310;SDS011;45078;51.654;21.250;2024-01-30T06:01:08;15.77;;;8.07;;
59310;SDS011;45078;51.654;21.250;2024-01-30T06:03:34;12.75;;;8.07;;
59310;SDS011;45078;51.654;21.250;2024-01-30T06:05:59;24.27;;;9.88;;
59310;SDS011;45078;51.654;21.250;2024-01-30T06:08:25;34.63;;;12.43;;
59310;SDS011;45078;51.654;21.250;2024-01-30T06:10:51;24.70;;;9.32;;
59310;SDS011;45078;51.654;21.250;2024-01-30T06:13:17;21.17;;;10.27;;
59310;SDS011;45078;51.654;21.250;2024-01-30T06:15:42;26.05;;;11.40;;
59310;SDS011;45078;51.654;21.250;2024-01-30T06:18:08;22.15;;;9.30;;
59310;SDS011;45078;51.654;21.250;2024-01-30T06:20:33;23.25;;;11.32;;
59310;SDS011;45078;51.654;21.250;2024-01-30T06:22:59;25.00;;;10.02;;
59310;SDS011;45078;51.654;21.250;2024-01-30T06:25:25;27.60;;;10.63;;
59310;SDS011;45078;51.654;21.250;2024-01-30T06:27:50;23.58;;;9.65;;
59310;SDS011;45078;51.654;21.250;2024-01-30T06:30:16;26.15;;;11.57;;
59310;SDS011;45078;51.654;21.250;2024-01-30T06:32:41;25.17;;;11.00;;
59310;SDS011;45078;51.654;21.250;2024-01-30T06:35:07;26.10;;;10.07;;
59310;SDS011;45078;51.654;21.250;2024-01-30T06:37:33;28.42;;;11.95;;
59310;SDS011;45078;51.654;21.250;2024-01-30T06:39:59;31.40;;;12.02;;
59310;SDS011;45078;51.654;21.250;2024-01-30T06:42:24;28.45;;;11.13;;
59310;SDS011;45078;51.654;21.250;2024-01-30T06:44:50;20.70;;;9.43;;
59310;SDS011;45078;51.654;21.250;2024-01-30T06:47:15;21.17;;;9.93;;
59310;SDS011;45078;51.654;21.250;2024-01-30T06:49:41;23.13;;;10.43;;
59310;SDS011;45078;51.654;21.250;2024-01-30T06:52:07;21.48;;;10.85;;
59310;SDS011;45078;51.654;21.250;2024-01-30T06:54:32;24.35;;;10.18;;
59310;SDS011;45078;51.654;21.250;2024-01-30T06:56:58;24.77;;;10.75;;
59310;SDS011;45078;51.654;21.250;2024-01-30T06:59:24;22.38;;;9.43;;
59310;SDS011;45078;51.654;21.250;2024-01-30T07:01:50;21.52;;;10.18;;
59310;SDS011;45078;51.654;21.250;2024-01-30T07:04:15;24.83;;;11.25;;
59310;SDS011;45078;51.654;21.250;2024-01-30T07:06:41;24.33;;;11.15;;
59310;SDS011;45078;51.654;21.250;2024-01-30T07:09:07;24.02;;;10.43;;
59310;SDS011;45078;51.654;21.250;2024-01-30T07:11:33;25.77;;;9.32;;
59310;SDS011;45078;51.654;21.250;2024-01-30T07:13:59;25.45;;;10.02;;
59310;SDS011;45078;51.654;21.250;2024-01-30T07:16:24;27.98;;;9.85;;
59310;SDS011;45078;51.654;21.250;2024-01-30T07:18:50;23.30;;;10.82;;
59310;SDS011;45078;51.654;21.250;2024-01-30T07:21:16;20.42;;;9.60;;
59310;SDS011;45078;51.654;21.250;2024-01-30T07:23:42;28.20;;;11.30;;
59310;SDS011;45078;51.654;21.250;2024-01-30T07:26:08;28.02;;;9.77;;
59310;SDS011;45078;51.654;21.250;2024-01-30T07:28:34;22.35;;;9.35;;
59310;SDS011;45078;51.654;21.250;2024-01-30T07:31:03;20.77;;;9.73;;
59310;SDS011;45078;51.654;21.250;2024-01-30T07:33:28;25.13;;;10.30;;
59310;SDS011;45078;51.654;21.250;2024-01-30T07:35:54;26.10;;;10.18;;
59310;SDS011;45078;51.654;21.250;2024-01-30T07:38:20;32.55;;;11.02;;
59310;SDS011;45078;51.654;21.250;2024-01-30T07:40:45;23.98;;;10.52;;
59310;SDS011;45078;51.654;21.250;2024-01-30T07:43:11;23.98;;;10.10;;
59310;SDS011;45078;51.654;21.250;2024-01-30T07:45:36;22.65;;;11.18;;
59310;SDS011;45078;51.654;21.250;2024-01-30T07:48:03;26.02;;;11.52;;
59310;SDS011;45078;51.654;21.250;2024-01-30T07:50:32;31.83;;;11.70;;
59310;SDS011;45078;51.654;21.250;2024-01-30T07:52:59;22.58;;;10.45;;
59310;SDS011;45078;51.654;21.250;2024-01-30T07:55:25;21.17;;;9.75;;
59310;SDS011;45078;51.654;21.250;2024-01-30T07:57:53;22.30;;;10.60;;
59310;SDS011;45078;51.654;21.250;2024-01-30T08:00:20;27.13;;;11.05;;
59310;SDS011;45078;51.654;21.250;2024-01-30T08:02:46;20.35;;;8.82;;
59310;SDS011;45078;51.654;21.250;2024-01-30T08:05:12;26.27;;;11.32;;
59310;SDS011;45078;51.654;21.250;2024-01-30T08:07:40;25.50;;;10.75;;
59310;SDS011;45078;51.654;21.250;2024-01-30T08:10:06;22.27;;;11.15;;
59310;SDS011;45078;51.654;21.250;2024-01-30T08:12:32;23.90;;;10.02;;
59310;SDS011;45078;51.654;21.250;2024-01-30T08:14:58;29.05;;;11.32;;
59310;SDS011;45078;51.654;21.250;2024-01-30T08:17:23;23.85;;;10.10;;
59310;SDS011;45078;51.654;21.250;2024-01-30T08:19:49;27.45;;;11.48;;
59310;SDS011;45078;51.654;21.250;2024-01-30T08:22:14;24.08;;;9.73;;
59310;SDS011;45078;51.654;21.250;2024-01-30T08:24:40;22.85;;;10.18;;
59310;SDS011;45078;51.654;21.250;2024-01-30T08:27:06;21.38;;;10.07;;
59310;SDS011;45078;51.654;21.250;2024-01-30T08:29:34;24.77;;;10.48;;
59310;SDS011;45078;51.654;21.250;2024-01-30T08:32:00;24.73;;;10.48;;
59310;SDS011;45078;51.654;21.250;2024-01-30T08:34:26;22.88;;;11.38;;
59310;SDS011;45078;51.654;21.250;2024-01-30T08:36:52;24.08;;;10.50;;
59310;SDS011;45078;51.654;21.250;2024-01-30T08:39:17;25.48;;;10.98;;
59310;SDS011;45078;51.654;21.250;2024-01-30T08:41:43;17.98;;;8.75;;
59310;SDS011;45078;51.654;21.250;2024-01-30T08:44:09;18.55;;;8.57;;
59310;SDS011;45078;51.654;21.250;2024-01-30T08:46:36;24.48;;;11.00;;
59310;SDS011;45078;51.654;21.250;2024-01-30T08:49:01;15.82;;;8.70;;
59310;SDS011;45078;51.654;21.250;2024-01-30T08:51:29;21.90;;;8.63;;
59310;SDS011;45078;51.654;21.250;2024-01-30T08:53:54;30.25;;;11.70;;
59310;SDS011;45078;51.654;21.250;2024-01-30T08:56:20;20.80;;;10.68;;
59310;SDS011;45078;51.654;21.250;2024-01-30T08:58:46;29.85;;;10.27;;
59310;SDS011;45078;51.654;21.250;2024-01-30T09:01:11;25.48;;;11.15;;
59310;SDS011;45078;51.654;21.250;2024-01-30T09:03:37;26.60;;;11.25;;
59310;SDS011;45078;51.654;21.250;2024-01-30T09:06:08;23.10;;;9.70;;
59310;SDS011;45078;51.654;21.250;2024-01-30T09:08:34;22.05;;;9.73;;
59310;SDS011;45078;51.654;21.250;2024-01-30T09:10:59;21.50;;;11.05;;
59310;SDS011;45078;51.654;21.250;2024-01-30T09:13:25;21.10;;;10.30;;
59310;SDS011;45078;51.654;21.250;2024-01-30T09:15:50;28.15;;;10.20;;
59310;SDS011;45078;51.654;21.250;2024-01-30T09:18:16;18.73;;;9.20;;
59310;SDS011;45078;51.654;21.250;2024-01-30T09:20:41;26.70;;;11.48;;
59310;SDS011;45078;51.654;21.250;2024-01-30T09:23:07;15.70;;;7.97;;
59310;SDS011;45078;51.654;21.250;2024-01-30T09:25:33;17.77;;;8.52;;
59310;SDS011;45078;51.654;21.250;2024-01-30T09:27:59;25.77;;;9.70;;
59310;SDS011;45078;51.654;21.250;2024-01-30T09:30:24;23.98;;;9.75;;
59310;SDS011;45078;51.654;21.250;2024-01-30T09:32:50;29.15;;;10.07;;
59310;SDS011;45078;51.654;21.250;2024-01-30T09:35:16;26.15;;;11.32;;
59310;SDS011;45078;51.654;21.250;2024-01-30T09:37:41;18.88;;;8.23;;
59310;SDS011;45078;51.654;21.250;2024-01-30T09:40:07;21.73;;;9.95;;
59310;SDS011;45078;51.654;21.250;2024-01-30T09:42:34;28.33;;;10.85;;
59310;SDS011;45078;51.654;21.250;2024-01-30T09:45:04;21.42;;;9.52;;
59310;SDS011;45078;51.654;21.250;2024-01-30T09:47:31;21.38;;;8.60;;
59310;SDS011;45078;51.654;21.250;2024-01-30T09:50:03;17.15;;;8.13;;
59310;SDS011;45078;51.654;21.250;2024-01-30T09:52:31;17.80;;;8.45;;
59310;SDS011;45078;51.654;21.250;2024-01-30T09:54:57;26.77;;;10.20;;
59310;SDS011;45078;51.654;21.250;2024-01-30T09:57:24;21.65;;;8.45;;
59310;SDS011;45078;51.654;21.250;2024-01-30T09:59:51;19.75;;;8.55;;
59310;SDS011;45078;51.654;21.250;2024-01-30T10:02:19;20.63;;;9.43;;
59310;SDS011;45078;51.654;21.250;2024-01-30T10:04:47;17.55;;;8.10;;
59310;SDS011;45078;51.654;21.250;2024-01-30T10:07:13;20.27;;;7.38;;
59310;SDS011;45078;51.654;21.250;2024-01-30T10:09:40;20.33;;;10.07;;
59310;SDS011;45078;51.654;21.250;2024-01-30T10:12:05;20.50;;;8.45;;
59310;SDS011;45078;51.654;21.250;2024-01-30T10:14:32;19.55;;;8.70;;
59310;SDS011;45078;51.654;21.250;2024-01-30T10:16:58;19.70;;;8.80;;
59310;SDS011;45078;51.654;21.250;2024-01-30T10:19:24;19.17;;;8.98;;
59310;SDS011;45078;51.654;21.250;2024-01-30T10:21:49;20.10;;;8.25;;
59310;SDS011;45078;51.654;21.250;2024-01-30T10:24:15;21.23;;;8.85;;
59310;SDS011;45078;51.654;21.250;2024-01-30T10:26:43;21.40;;;8.88;;
59310;SDS011;45078;51.654;21.250;2024-01-30T10:29:09;22.08;;;8.88;;
59310;SDS011;45078;51.654;21.250;2024-01-30T10:31:34;22.00;;;9.50;;
59310;SDS011;45078;51.654;21.250;2024-01-30T10:34:00;21.15;;;8.25;;
59310;SDS011;45078;51.654;21.250;2024-01-30T10:36:28;16.42;;;7.32;;
59310;SDS011;45078;51.654;21.250;2024-01-30T10:38:55;24.23;;;8.30;;
59310;SDS011;45078;51.654;21.250;2024-01-30T10:41:26;19.17;;;8.10;;
59310;SDS011;45078;51.654;21.250;2024-01-30T10:44:13;14.85;;;5.80;;
59310;SDS011;45078;51.654;21.250;2024-01-30T10:46:41;22.45;;;8.15;;
59310;SDS011;45078;51.654;21.250;2024-01-30T10:49:10;16.17;;;7.25;;
59310;SDS011;45078;51.654;21.250;2024-01-30T10:51:38;17.63;;;9.18;;
59310;SDS011;45078;51.654;21.250;2024-01-30T10:54:04;17.23;;;7.43;;
59310;SDS011;45078;51.654;21.250;2024-01-30T10:56:31;16.45;;;7.80;;
59310;SDS011;45078;51.654;21.250;2024-01-30T10:58:58;16.67;;;8.07;;
59310;SDS011;45078;51.654;21.250;2024-01-30T11:01:25;19.13;;;8.80;;
59310;SDS011;45078;51.654;21.250;2024-01-30T11:03:52;21.67;;;8.70;;
59310;SDS011;45078;51.654;21.250;2024-01-30T11:06:18;9.45;;;5.50;;
59310;SDS011;45078;51.654;21.250;2024-01-30T11:08:59;24.83;;;7.47;;
59310;SDS011;45078;51.654;21.250;2024-01-30T11:11:29;19.50;;;8.35;;
59310;SDS011;45078;51.654;21.250;2024-01-30T11:13:54;10.70;;;5.95;;
59310;SDS011;45078;51.654;21.250;2024-01-30T11:16:20;14.50;;;7.00;;
59310;SDS011;45078;51.654;21.250;2024-01-30T11:18:50;16.60;;;7.55;;
59310;SDS011;45078;51.654;21.250;2024-01-30T11:21:18;15.32;;;7.00;;
59310;SDS011;45078;51.654;21.250;2024-01-30T11:23:44;19.08;;;7.68;;
59310;SDS011;45078;51.654;21.250;2024-01-30T11:26:12;17.40;;;7.55;;
59310;SDS011;45078;51.654;21.250;2024-01-30T11:28:38;19.10;;;7.80;;
59310;SDS011;45078;51.654;21.250;2024-01-30T11:31:04;15.00;;;7.50;;
59310;SDS011;45078;51.654;21.250;2024-01-30T11:33:31;15.98;;;7.53;;
59310;SDS011;45078;51.654;21.250;2024-01-30T11:35:58;18.02;;;6.78;;
59310;SDS011;45078;51.654;21.250;2024-01-30T11:38:25;13.95;;;6.38;;
59310;SDS011;45078;51.654;21.250;2024-01-30T11:40:55;15.18;;;6.55;;
59310;SDS011;45078;51.654;21.250;2024-01-30T11:43:23;13.40;;;7.18;;
59310;SDS011;45078;51.654;21.250;2024-01-30T11:45:50;18.00;;;7.50;;
59310;SDS011;45078;51.654;21.250;2024-01-30T11:48:16;13.40;;;6.35;;
59310;SDS011;45078;51.654;21.250;2024-01-30T11:50:42;13.00;;;6.25;;
59310;SDS011;45078;51.654;21.250;2024-01-30T11:53:09;12.70;;;6.38;;
59310;SDS011;45078;51.654;21.250;2024-01-30T11:55:35;15.00;;;6.32;;
59310;SDS011;45078;51.654;21.250;2024-01-30T11:58:02;15.15;;;6.00;;
59310;SDS011;45078;51.654;21.250;2024-01-30T12:00:29;15.20;;;6.22;;
59310;SDS011;45078;51.654;21.250;2024-01-30T12:02:55;17.85;;;7.57;;
59310;SDS011;45078;51.654;21.250;2024-01-30T12:05:22;16.33;;;7.13;;
59310;SDS011;45078;51.654;21.250;2024-01-30T12:07:48;12.52;;;5.90;;
59310;SDS011;45078;51.654;21.250;2024-01-30T12:10:14;15.75;;;6.05;;
59310;SDS011;45078;51.654;21.250;2024-01-30T12:12:41;12.73;;;6.43;;
59310;SDS011;45078;51.654;21.250;2024-01-30T12:15:08;13.65;;;6.30;;
59310;SDS011;45078;51.654;21.250;2024-01-30T12:17:34;11.15;;;5.68;;
59310;SDS011;45078;51.654;21.250;2024-01-30T12:20:13;11.25;;;5.97;;
59310;SDS011;45078;51.654;21.250;2024-01-30T12:22:40;11.90;;;4.53;;
59310;SDS011;45078;51.654;21.250;2024-01-30T12:25:10;10.10;;;4.90;;
59310;SDS011;45078;51.654;21.250;2024-01-30T12:27:36;14.85;;;5.90;;
59310;SDS011;45078;51.654;21.250;2024-01-30T12:30:07;13.48;;;5.70;;
59310;SDS011;45078;51.654;21.250;2024-01-30T12:32:36;9.35;;;4.10;;
59310;SDS011;45078;51.654;21.250;2024-01-30T12:35:07;9.27;;;4.63;;
59310;SDS011;45078;51.654;21.250;2024-01-30T12:37:43;9.77;;;4.68;;
59310;SDS011;45078;51.654;21.250;2024-01-30T12:40:10;10.80;;;4.30;;
59310;SDS011;45078;51.654;21.250;2024-01-30T12:42:38;11.15;;;4.82;;
59310;SDS011;45078;51.654;21.250;2024-01-30T12:45:04;12.68;;;5.00;;
59310;SDS011;45078;51.654;21.250;2024-01-30T12:47:30;9.05;;;4.75;;
59310;SDS011;45078;51.654;21.250;2024-01-30T12:49:56;12.85;;;5.10;;
59310;SDS011;45078;51.654;21.250;2024-01-30T12:52:22;10.20;;;4.60;;
59310;SDS011;45078;51.654;21.250;2024-01-30T12:54:48;10.32;;;5.18;;
59310;SDS011;45078;51.654;21.250;2024-01-30T12:57:14;12.18;;;4.95;;
59310;SDS011;45078;51.654;21.250;2024-01-30T12:59:41;10.48;;;4.97;;
59310;SDS011;45078;51.654;21.250;2024-01-30T13:02:07;10.05;;;5.18;;
59310;SDS011;45078;51.654;21.250;2024-01-30T13:04:33;14.85;;;5.10;;
59310;SDS011;45078;51.654;21.250;2024-01-30T13:06:59;10.93;;;4.78;;
59310;SDS011;45078;51.654;21.250;2024-01-30T13:09:25;10.05;;;4.22;;
59310;SDS011;45078;51.654;21.250;2024-01-30T13:11:52;10.57;;;5.07;;
59310;SDS011;45078;51.654;21.250;2024-01-30T13:14:18;11.70;;;5.40;;
59310;SDS011;45078;51.654;21.250;2024-01-30T13:16:44;10.68;;;5.30;;
59310;SDS011;45078;51.654;21.250;2024-01-30T13:19:10;10.77;;;5.18;;
59310;SDS011;45078;51.654;21.250;2024-01-30T13:21:35;12.18;;;5.60;;
59310;SDS011;45078;51.654;21.250;2024-01-30T13:24:01;12.35;;;5.60;;
59310;SDS011;45078;51.654;21.250;2024-01-30T13:26:27;13.25;;;4.97;;
59310;SDS011;45078;51.654;21.250;2024-01-30T13:28:53;10.05;;;4.65;;
59310;SDS011;45078;51.654;21.250;2024-01-30T13:31:18;9.43;;;3.97;;
59310;SDS011;45078;51.654;21.250;2024-01-30T13:33:44;13.10;;;5.43;;
59310;SDS011;45078;51.654;21.250;2024-01-30T13:36:10;13.02;;;5.20;;
59310;SDS011;45078;51.654;21.250;2024-01-30T13:38:36;16.58;;;5.57;;
59310;SDS011;45078;51.654;21.250;2024-01-30T13:41:02;13.98;;;5.68;;
59310;SDS011;45078;51.654;21.250;2024-01-30T13:43:28;12.68;;;5.10;;
59310;SDS011;45078;51.654;21.250;2024-01-30T13:45:54;11.40;;;5.15;;
59310;SDS011;45078;51.654;21.250;2024-01-30T13:48:20;13.80;;;5.63;;
59310;SDS011;45078;51.654;21.250;2024-01-30T13:50:46;12.30;;;5.03;;
59310;SDS011;45078;51.654;21.250;2024-01-30T13:53:12;14.43;;;6.07;;
59310;SDS011;45078;51.654;21.250;2024-01-30T13:55:38;9.50;;;5.03;;
59310;SDS011;45078;51.654;21.250;2024-01-30T13:58:04;13.32;;;5.97;;
59310;SDS011;45078;51.654;21.250;2024-01-30T14:00:31;9.98;;;5.68;;
59310;SDS011;45078;51.654;21.250;2024-01-30T14:02:56;12.93;;;6.13;;
59310;SDS011;45078;51.654;21.250;2024-01-30T14:05:25;13.52;;;6.03;;
59310;SDS011;45078;51.654;21.250;2024-01-30T14:07:52;11.23;;;5.50;;
59310;SDS011;45078;51.654;21.250;2024-01-30T14:10:18;14.43;;;6.32;;